Time;durP1;ratioP1;P1;durP2;ratioP2;P2;SDS_P1;SDS_P2;PMS_P1;PMS_P2;Temp;Humidity;BMP_temperature;BMP_pressure;BME280_temperature;BME280_humidity;BME280_pressure;Samples;Min_cycle;Max_cycle;Signal;HPM_P1;HPM_P2
2021/05/12 00:00:12;;;;;;;15.38;6.10;;;;;;;;;;5002041;28;37815;-76
2021/05/12 00:02:38;;;;;;;16.02;6.55;;;;;;;;;;4996486;28;39863;-76
2021/05/12 00:05:06;;;;;;;13.80;6.82;;;;;;;;;;4982505;28;38554;-75
2021/05/12 00:07:32;;;;;;;11.73;5.70;;;;;;;;;;4979539;28;47153;-76
2021/05/12 00:09:59;;;;;;;13.32;5.35;;;;;;;;;;4985464;28;38651;-76
2021/05/12 00:12:25;;;;;;;10.77;5.10;;;;;;;;;;4980942;28;38566;-77
2021/05/12 00:14:52;;;;;;;9.75;4.80;;;;;;;;;;4997575;28;37316;-78
2021/05/12 00:17:19;;;;;;;12.43;4.85;;;;;;;;;;4987287;28;36935;-76
2021/05/12 00:19:54;;;;;;;12.95;4.82;;;;;;;;;;4986872;28;38190;-76
2021/05/12 00:24:59;;;;;;;7.95;4.60;;;;;;;;;;5008264;28;38720;-76
2021/05/12 00:27:26;;;;;;;11.35;5.30;;;;;;;;;;4986085;28;37676;-76
2021/05/12 00:29:52;;;;;;;12.93;4.93;;;;;;;;;;4983789;28;38773;-76
2021/05/12 00:32:19;;;;;;;11.20;5.03;;;;;;;;;;5003287;28;38254;-76
2021/05/12 00:34:45;;;;;;;13.20;4.53;;;;;;;;;;5002000;28;36654;-76
2021/05/12 00:37:12;;;;;;;12.37;4.73;;;;;;;;;;4986956;28;36886;-76
2021/05/12 00:39:38;;;;;;;11.70;5.23;;;;;;;;;;5011654;28;39470;-76
2021/05/12 00:42:05;;;;;;;12.17;5.63;;;;;;;;;;5000451;28;39282;-76
2021/05/12 00:44:31;;;;;;;8.80;3.93;;;;;;;;;;4991312;28;37719;-76
2021/05/12 00:47:02;;;;;;;10.80;4.40;;;;;;;;;;4984136;28;37106;-76
2021/05/12 00:49:28;;;;;;;10.60;4.33;;;;;;;;;;5001318;28;48397;-76
2021/05/12 00:51:54;;;;;;;17.57;5.00;;;;;;;;;;5002779;28;38354;-76
2021/05/12 00:54:21;;;;;;;9.80;4.53;;;;;;;;;;4978254;28;38566;-76
2021/05/12 00:56:47;;;;;;;14.50;4.67;;;;;;;;;;5003954;28;37115;-76
2021/05/12 00:59:14;;;;;;;12.73;4.10;;;;;;;;;;5004642;28;39223;-77
2021/05/12 01:01:40;;;;;;;10.07;4.33;;;;;;;;;;4983769;28;40388;-77
2021/05/12 01:04:07;;;;;;;10.80;4.35;;;;;;;;;;4988691;28;38449;-76
2021/05/12 01:06:38;;;;;;;11.93;4.20;;;;;;;;;;5005021;28;36770;-76
2021/05/12 01:09:05;;;;;;;12.05;4.68;;;;;;;;;;5003380;28;38774;-76
2021/05/12 01:11:32;;;;;;;11.00;4.70;;;;;;;;;;4986127;28;39638;-77
2021/05/12 01:13:59;;;;;;;10.73;5.00;;;;;;;;;;4982391;28;37079;-76
2021/05/12 01:16:26;;;;;;;11.20;4.83;;;;;;;;;;5000241;28;37647;-76
2021/05/12 01:18:52;;;;;;;12.57;5.20;;;;;;;;;;4984867;28;39173;-76
2021/05/12 01:21:19;;;;;;;14.40;5.57;;;;;;;;;;4998803;28;38546;-76
2021/05/12 01:23:47;;;;;;;11.27;5.47;;;;;;;;;;4986568;28;39655;-76
2021/05/12 01:26:17;;;;;;;14.93;5.57;;;;;;;;;;5005209;28;37872;-76
2021/05/12 01:28:45;;;;;;;10.67;5.67;;;;;;;;;;5008472;28;39425;-76
2021/05/12 01:31:20;;;;;;;11.23;5.43;;;;;;;;;;5003026;28;39606;-76
2021/05/12 01:33:47;;;;;;;17.97;6.83;;;;;;;;;;4987457;28;37927;-76
2021/05/12 01:36:13;;;;;;;15.85;6.18;;;;;;;;;;4986294;28;37342;-76
2021/05/12 01:38:42;;;;;;;13.00;5.63;;;;;;;;;;5003764;28;39013;-76
2021/05/12 01:41:09;;;;;;;16.90;6.65;;;;;;;;;;5000736;28;38449;-77
2021/05/12 01:43:35;;;;;;;16.07;7.00;;;;;;;;;;4985055;28;39223;-77
2021/05/12 01:46:02;;;;;;;17.35;7.30;;;;;;;;;;4980915;28;37717;-76
2021/05/12 01:48:28;;;;;;;14.05;7.60;;;;;;;;;;4985812;28;40202;-76
2021/05/12 01:50:55;;;;;;;17.00;7.45;;;;;;;;;;4998506;28;38469;-76
2021/05/12 01:53:21;;;;;;;24.33;8.68;;;;;;;;;;4997233;28;38852;-76
2021/05/12 01:55:48;;;;;;;16.75;8.18;;;;;;;;;;4985718;28;39343;-76
2021/05/12 01:58:15;;;;;;;23.60;9.13;;;;;;;;;;4997157;28;35165;-77
2021/05/12 02:00:49;;;;;;;14.20;8.13;;;;;;;;;;4976032;28;40298;-76
2021/05/12 02:03:15;;;;;;;18.63;8.90;;;;;;;;;;4999559;28;38155;-76
2021/05/12 02:08:28;;;;;;;18.05;10.43;;;;;;;;;;5002958;28;49737;-76
2021/05/12 02:10:56;;;;;;;19.37;10.43;;;;;;;;;;5006059;28;39164;-77
2021/05/12 02:13:25;;;;;;;18.23;11.13;;;;;;;;;;4979209;28;38685;-76
2021/05/12 02:15:53;;;;;;;24.33;12.97;;;;;;;;;;5000735;28;37310;-76
2021/05/12 02:18:20;;;;;;;29.25;15.10;;;;;;;;;;4998398;28;38736;-76
2021/05/12 02:20:46;;;;;;;21.50;12.87;;;;;;;;;;5002391;28;39530;-76
2021/05/12 02:23:14;;;;;;;25.27;13.97;;;;;;;;;;4983065;28;38192;-76
2021/05/12 02:25:42;;;;;;;27.20;15.87;;;;;;;;;;4996259;28;37236;-76
2021/05/12 02:28:09;;;;;;;22.80;14.17;;;;;;;;;;5000753;28;37878;-76
2021/05/12 02:30:38;;;;;;;33.13;18.10;;;;;;;;;;4975878;28;38667;-76
2021/05/12 02:33:05;;;;;;;29.73;17.37;;;;;;;;;;4981218;28;38365;-76
2021/05/12 02:35:31;;;;;;;30.93;17.73;;;;;;;;;;4979933;28;37941;-76
2021/05/12 02:37:58;;;;;;;25.40;15.80;;;;;;;;;;5003943;28;38914;-76
2021/05/12 02:40:24;;;;;;;28.20;17.53;;;;;;;;;;4999931;28;39849;-76
2021/05/12 02:42:51;;;;;;;33.07;18.80;;;;;;;;;;4985612;28;38572;-76
2021/05/12 02:45:19;;;;;;;31.20;18.93;;;;;;;;;;4984919;28;20046;-75
2021/05/12 02:47:58;;;;;;;29.50;19.25;;;;;;;;;;4986145;28;37603;-76
2021/05/12 02:50:26;;;;;;;31.35;18.98;;;;;;;;;;4989009;28;39985;-76
2021/05/12 02:52:52;;;;;;;29.43;18.80;;;;;;;;;;5006823;28;38611;-76
2021/05/12 02:55:19;;;;;;;38.93;23.63;;;;;;;;;;5005522;28;37534;-76
2021/05/12 02:57:46;;;;;;;30.02;20.63;;;;;;;;;;5000475;28;39592;-76
2021/05/12 03:00:13;;;;;;;40.80;25.03;;;;;;;;;;5005915;28;38927;-76
2021/05/12 03:02:40;;;;;;;46.60;25.20;;;;;;;;;;5003451;28;38381;-77
2021/05/12 03:05:08;;;;;;;29.63;20.73;;;;;;;;;;4987541;28;36531;-76
2021/05/12 03:07:34;;;;;;;36.93;25.13;;;;;;;;;;4990104;28;37894;-76
2021/05/12 03:10:01;;;;;;;38.88;23.25;;;;;;;;;;5005514;28;39408;-76
2021/05/12 03:12:27;;;;;;;37.88;26.40;;;;;;;;;;5004825;28;48929;-76
2021/05/12 03:14:53;;;;;;;36.88;25.73;;;;;;;;;;5003679;28;37418;-76
2021/05/12 03:17:20;;;;;;;43.90;29.77;;;;;;;;;;5001956;28;38866;-76
2021/05/12 03:19:46;;;;;;;35.25;25.20;;;;;;;;;;5006083;28;38802;-76
2021/05/12 03:22:13;;;;;;;42.35;29.70;;;;;;;;;;4979608;28;39566;-76
2021/05/12 03:24:39;;;;;;;42.78;26.13;;;;;;;;;;4983102;28;37160;-76
2021/05/12 03:27:05;;;;;;;39.23;28.03;;;;;;;;;;5003104;28;39240;-76
2021/05/12 03:29:32;;;;;;;36.37;26.23;;;;;;;;;;4980276;28;39025;-76
2021/05/12 03:31:58;;;;;;;49.78;33.25;;;;;;;;;;4990607;28;38580;-75
2021/05/12 03:34:25;;;;;;;53.27;32.67;;;;;;;;;;4982019;28;37491;-76
2021/05/12 03:36:51;;;;;;;41.30;27.57;;;;;;;;;;4982574;28;39320;-76
2021/05/12 03:39:17;;;;;;;34.63;26.17;;;;;;;;;;5005721;28;38755;-76
2021/05/12 03:41:44;;;;;;;39.43;26.53;;;;;;;;;;5004232;28;37879;-76
2021/05/12 03:44:11;;;;;;;44.03;27.65;;;;;;;;;;4985638;28;36960;-76
2021/05/12 03:46:37;;;;;;;46.50;29.40;;;;;;;;;;5000234;28;40294;-76
2021/05/12 03:49:05;;;;;;;50.88;32.10;;;;;;;;;;5007436;28;40318;-76
2021/05/12 03:51:31;;;;;;;42.65;25.60;;;;;;;;;;4982659;28;39823;-76
2021/05/12 03:53:57;;;;;;;38.23;26.13;;;;;;;;;;5003206;28;38282;-76
2021/05/12 03:56:24;;;;;;;39.03;25.33;;;;;;;;;;4987109;28;40605;-76
2021/05/12 03:58:50;;;;;;;35.43;21.67;;;;;;;;;;5001580;28;39449;-76
2021/05/12 04:01:16;;;;;;;31.97;21.00;;;;;;;;;;4998464;28;36929;-74
2021/05/12 04:03:43;;;;;;;35.03;19.00;;;;;;;;;;4981485;28;38594;-75
2021/05/12 04:06:09;;;;;;;37.80;16.90;;;;;;;;;;5001680;28;39124;-76
2021/05/12 04:08:36;;;;;;;27.20;13.30;;;;;;;;;;4987583;28;37194;-76
2021/05/12 04:11:02;;;;;;;32.23;13.67;;;;;;;;;;4980747;28;38350;-75
2021/05/12 04:13:28;;;;;;;32.60;11.37;;;;;;;;;;4987093;28;47377;-76
2021/05/12 04:15:55;;;;;;;30.57;10.97;;;;;;;;;;4986606;28;37888;-76
2021/05/12 04:18:21;;;;;;;22.57;9.30;;;;;;;;;;4979299;28;38847;-76
2021/05/12 04:20:48;;;;;;;20.97;8.60;;;;;;;;;;4980517;28;39122;-76
2021/05/12 04:23:14;;;;;;;26.07;8.47;;;;;;;;;;4979488;28;38238;-76
2021/05/12 04:25:40;;;;;;;18.47;7.60;;;;;;;;;;4995885;28;38790;-76
2021/05/12 04:28:07;;;;;;;21.47;6.43;;;;;;;;;;4993879;28;37979;-75
2021/05/12 04:30:33;;;;;;;22.13;6.13;;;;;;;;;;4993756;28;37870;-76
2021/05/12 04:33:00;;;;;;;19.33;6.23;;;;;;;;;;4982068;28;37484;-74
2021/05/12 04:35:27;;;;;;;19.70;5.20;;;;;;;;;;4996938;28;38417;-74
2021/05/12 04:37:54;;;;;;;17.73;4.80;;;;;;;;;;4990920;28;38582;-75
2021/05/12 04:40:20;;;;;;;21.65;4.50;;;;;;;;;;4994092;28;38156;-75
2021/05/12 04:42:47;;;;;;;25.13;5.87;;;;;;;;;;4987988;28;37932;-75
2021/05/12 04:45:15;;;;;;;20.15;5.25;;;;;;;;;;4978067;28;40422;-75
2021/05/12 04:47:42;;;;;;;15.25;4.45;;;;;;;;;;4990747;28;39124;-75
2021/05/12 04:50:09;;;;;;;17.63;4.60;;;;;;;;;;4976877;28;38952;-76
2021/05/12 04:52:36;;;;;;;18.63;5.32;;;;;;;;;;4995704;28;37135;-76
2021/05/12 04:55:02;;;;;;;17.70;4.90;;;;;;;;;;5002782;28;37481;-76
2021/05/12 04:57:29;;;;;;;22.88;4.68;;;;;;;;;;4994382;28;39208;-76
2021/05/12 04:59:55;;;;;;;20.92;4.20;;;;;;;;;;4994219;28;38216;-76
2021/05/12 05:02:22;;;;;;;21.80;3.58;;;;;;;;;;5004403;28;36334;-76
2021/05/12 05:04:48;;;;;;;20.95;4.53;;;;;;;;;;4992354;28;37559;-75
2021/05/12 05:07:15;;;;;;;20.52;3.97;;;;;;;;;;4994403;28;39274;-76
2021/05/12 05:09:41;;;;;;;18.98;3.92;;;;;;;;;;4977339;28;38647;-76
2021/05/12 05:12:07;;;;;;;17.83;3.45;;;;;;;;;;4991696;28;37854;-75
2021/05/12 05:14:34;;;;;;;16.73;3.78;;;;;;;;;;4997936;28;37770;-76
2021/05/12 05:17:02;;;;;;;17.65;4.40;;;;;;;;;;4989313;28;38079;-75
2021/05/12 05:19:29;;;;;;;19.38;3.72;;;;;;;;;;4992085;28;49124;-76
2021/05/12 05:21:56;;;;;;;16.50;3.33;;;;;;;;;;4975692;28;35667;-76
2021/05/12 05:24:23;;;;;;;15.80;3.33;;;;;;;;;;4993052;28;40887;-75
2021/05/12 05:26:49;;;;;;;21.48;3.22;;;;;;;;;;4995400;28;38415;-75
2021/05/12 05:29:16;;;;;;;17.98;3.70;;;;;;;;;;4984181;28;38374;-75
2021/05/12 05:31:42;;;;;;;22.98;3.95;;;;;;;;;;4990730;28;36900;-75
2021/05/12 05:34:08;;;;;;;24.17;4.00;;;;;;;;;;4968804;28;37521;-75
2021/05/12 05:36:35;;;;;;;16.65;3.40;;;;;;;;;;4992173;28;37903;-75
2021/05/12 05:39:01;;;;;;;16.92;2.42;;;;;;;;;;4984281;28;38911;-75
2021/05/12 05:41:27;;;;;;;21.60;2.92;;;;;;;;;;4980892;28;47146;-76
2021/05/12 05:43:54;;;;;;;15.63;2.75;;;;;;;;;;4981851;28;39155;-76
2021/05/12 05:46:20;;;;;;;19.02;3.03;;;;;;;;;;4976203;28;37216;-77
2021/05/12 05:48:47;;;;;;;23.60;3.67;;;;;;;;;;4995456;28;38884;-77
2021/05/12 05:51:13;;;;;;;20.95;3.53;;;;;;;;;;4995732;28;36976;-75
2021/05/12 05:53:39;;;;;;;17.90;2.50;;;;;;;;;;5001331;28;40201;-75
2021/05/12 05:56:06;;;;;;;18.45;3.00;;;;;;;;;;4971473;28;38370;-76
2021/05/12 05:58:32;;;;;;;14.93;3.42;;;;;;;;;;4981273;28;40034;-77
2021/05/12 06:00:58;;;;;;;18.30;2.95;;;;;;;;;;4980290;28;37873;-76
2021/05/12 06:03:25;;;;;;;19.75;3.45;;;;;;;;;;4976956;28;39367;-75
2021/05/12 06:05:51;;;;;;;14.40;3.40;;;;;;;;;;5001125;28;38639;-75
2021/05/12 06:08:18;;;;;;;15.80;3.08;;;;;;;;;;4978745;28;39208;-76
2021/05/12 06:10:44;;;;;;;12.38;3.20;;;;;;;;;;5004021;28;37517;-75
2021/05/12 06:13:11;;;;;;;15.77;4.07;;;;;;;;;;4999955;28;38758;-75
2021/05/12 06:15:40;;;;;;;21.38;3.80;;;;;;;;;;4999660;28;39587;-76
2021/05/12 06:18:07;;;;;;;22.40;3.85;;;;;;;;;;4978888;28;39292;-76
2021/05/12 06:20:33;;;;;;;22.92;4.88;;;;;;;;;;5001406;28;38022;-76
2021/05/12 06:23:01;;;;;;;15.93;4.03;;;;;;;;;;5004608;28;39442;-76
2021/05/12 06:25:27;;;;;;;20.27;4.38;;;;;;;;;;5001337;28;38873;-76
2021/05/12 06:27:54;;;;;;;18.50;5.15;;;;;;;;;;4996645;28;39049;-77
2021/05/12 06:30:20;;;;;;;19.50;5.28;;;;;;;;;;4974823;28;38555;-77
2021/05/12 06:32:47;;;;;;;19.67;5.55;;;;;;;;;;4978828;28;38931;-76
2021/05/12 06:35:14;;;;;;;19.25;5.88;;;;;;;;;;4981223;28;40391;-76
2021/05/12 06:37:40;;;;;;;18.30;5.90;;;;;;;;;;5000213;28;39234;-76
2021/05/12 06:40:07;;;;;;;20.95;5.70;;;;;;;;;;4976169;28;36546;-76
2021/05/12 06:42:33;;;;;;;14.75;4.72;;;;;;;;;;4995117;28;38334;-76
2021/05/12 06:45:00;;;;;;;20.80;5.10;;;;;;;;;;4979347;28;38548;-76
2021/05/12 06:47:26;;;;;;;17.55;4.30;;;;;;;;;;4996842;28;38411;-76
2021/05/12 06:49:52;;;;;;;18.42;4.95;;;;;;;;;;4984569;28;38136;-76
2021/05/12 06:52:19;;;;;;;16.13;4.68;;;;;;;;;;4999842;28;39802;-76
2021/05/12 06:54:46;;;;;;;13.20;4.78;;;;;;;;;;4982846;28;39192;-77
2021/05/12 06:57:13;;;;;;;20.02;4.47;;;;;;;;;;4978356;28;36268;-76
2021/05/12 06:59:39;;;;;;;15.02;4.07;;;;;;;;;;4978346;28;37726;-77
2021/05/12 07:02:06;;;;;;;14.73;5.25;;;;;;;;;;4984557;28;37268;-77
2021/05/12 07:04:32;;;;;;;13.40;3.70;;;;;;;;;;4985317;28;39266;-77
2021/05/12 07:06:58;;;;;;;12.43;3.90;;;;;;;;;;5000158;28;37940;-77
2021/05/12 07:09:25;;;;;;;17.80;4.65;;;;;;;;;;5002333;28;38398;-76
2021/05/12 07:11:52;;;;;;;12.00;3.42;;;;;;;;;;4978587;28;39492;-76
2021/05/12 07:14:18;;;;;;;17.13;4.15;;;;;;;;;;5003630;28;41769;-76
2021/05/12 07:16:45;;;;;;;12.48;4.30;;;;;;;;;;4999108;28;40027;-76
2021/05/12 07:19:11;;;;;;;14.02;3.70;;;;;;;;;;4995853;28;37089;-76
2021/05/12 07:21:37;;;;;;;15.40;4.40;;;;;;;;;;5000341;28;38242;-76
2021/05/12 07:24:04;;;;;;;13.63;4.15;;;;;;;;;;4998641;28;39343;-76
2021/05/12 07:26:30;;;;;;;13.13;4.32;;;;;;;;;;4993780;28;38571;-77
2021/05/12 07:28:57;;;;;;;16.60;4.30;;;;;;;;;;4986181;28;37228;-77
2021/05/12 07:31:24;;;;;;;14.85;4.45;;;;;;;;;;5003563;28;39721;-77
2021/05/12 07:33:51;;;;;;;13.90;4.20;;;;;;;;;;5008877;28;39907;-77
2021/05/12 07:36:17;;;;;;;15.88;4.43;;;;;;;;;;4990466;28;38626;-77
2021/05/12 07:38:43;;;;;;;22.17;5.13;;;;;;;;;;4991467;28;37559;-76
2021/05/12 07:41:10;;;;;;;25.85;5.95;;;;;;;;;;4991487;28;39222;-77
2021/05/12 07:43:36;;;;;;;15.65;4.88;;;;;;;;;;4997003;28;38562;-77
2021/05/12 07:46:03;;;;;;;16.30;4.95;;;;;;;;;;5028483;28;38612;-76
2021/05/12 07:48:29;;;;;;;14.32;4.78;;;;;;;;;;5006728;28;35813;-76
2021/05/12 07:50:56;;;;;;;17.67;5.65;;;;;;;;;;4990254;28;39108;-76
2021/05/12 07:53:23;;;;;;;11.57;4.20;;;;;;;;;;5009305;28;38669;-77
2021/05/12 07:55:49;;;;;;;10.73;4.10;;;;;;;;;;5008493;28;37506;-77
2021/05/12 07:58:16;;;;;;;18.33;4.38;;;;;;;;;;5009307;28;36833;-77
2021/05/12 08:00:44;;;;;;;11.85;4.05;;;;;;;;;;4990759;28;39725;-76
2021/05/12 08:03:11;;;;;;;23.02;5.68;;;;;;;;;;5009208;28;39430;-77
2021/05/12 08:05:37;;;;;;;14.88;4.55;;;;;;;;;;5009508;28;38465;-77
2021/05/12 08:08:04;;;;;;;15.77;4.68;;;;;;;;;;5009310;28;36737;-77
2021/05/12 08:10:30;;;;;;;15.45;4.80;;;;;;;;;;4991656;28;40106;-77
2021/05/12 08:12:57;;;;;;;17.10;4.28;;;;;;;;;;5010359;28;38622;-77
2021/05/12 08:15:23;;;;;;;15.93;4.45;;;;;;;;;;4991778;28;38406;-77
2021/05/12 08:17:51;;;;;;;17.85;4.53;;;;;;;;;;4996380;28;35980;-76
2021/05/12 08:20:18;;;;;;;12.93;3.60;;;;;;;;;;5013979;28;39161;-77
2021/05/12 08:22:45;;;;;;;13.35;3.63;;;;;;;;;;4998614;28;39277;-77
2021/05/12 08:25:11;;;;;;;10.25;3.45;;;;;;;;;;5013751;28;38250;-76
2021/05/12 08:27:39;;;;;;;8.80;3.00;;;;;;;;;;4996666;28;36545;-77
2021/05/12 08:30:08;;;;;;;10.63;2.58;;;;;;;;;;5011938;28;39507;-76
2021/05/12 08:32:35;;;;;;;8.50;2.90;;;;;;;;;;5013758;28;47261;-76
2021/05/12 08:35:02;;;;;;;10.52;3.47;;;;;;;;;;5015419;28;37733;-76
2021/05/12 08:37:28;;;;;;;13.70;3.97;;;;;;;;;;4993734;28;47059;-75
2021/05/12 08:39:54;;;;;;;12.10;3.92;;;;;;;;;;5014345;28;39972;-76
2021/05/12 08:42:21;;;;;;;13.30;3.70;;;;;;;;;;4979093;28;39182;-77
2021/05/12 08:44:49;;;;;;;14.57;3.72;;;;;;;;;;5032201;28;38107;-76
2021/05/12 08:47:19;;;;;;;14.75;3.78;;;;;;;;;;5015920;28;36473;-76
2021/05/12 08:49:47;;;;;;;12.98;4.38;;;;;;;;;;5016854;28;39602;-78
2021/05/12 08:52:14;;;;;;;10.23;3.30;;;;;;;;;;4994324;28;39296;-76
2021/05/12 08:54:40;;;;;;;11.23;3.47;;;;;;;;;;4995559;28;39868;-77
2021/05/12 08:57:07;;;;;;;13.30;3.25;;;;;;;;;;4993918;28;37634;-76
2021/05/12 08:59:34;;;;;;;9.60;2.83;;;;;;;;;;4996628;28;37910;-76
2021/05/12 09:02:01;;;;;;;11.00;2.10;;;;;;;;;;4995589;28;37279;-77
2021/05/12 09:04:28;;;;;;;12.18;2.00;;;;;;;;;;5017435;28;47108;-76
2021/05/12 09:06:55;;;;;;;11.20;2.50;;;;;;;;;;5013418;28;35721;-76
2021/05/12 09:09:22;;;;;;;11.90;2.50;;;;;;;;;;5016073;28;38533;-77
2021/05/12 09:11:49;;;;;;;11.88;2.65;;;;;;;;;;5016194;28;39063;-76
2021/05/12 09:14:28;;;;;;;7.63;1.80;;;;;;;;;;5012964;28;38534;-76
2021/05/12 09:16:55;;;;;;;12.45;2.10;;;;;;;;;;5013379;28;37331;-76
2021/05/12 09:19:23;;;;;;;9.25;2.25;;;;;;;;;;5011048;28;39336;-76
2021/05/12 09:21:51;;;;;;;12.38;2.03;;;;;;;;;;5009035;28;37079;-76
2021/05/12 09:24:23;;;;;;;11.18;2.38;;;;;;;;;;5013251;28;38027;-76
2021/05/12 09:26:51;;;;;;;13.98;2.13;;;;;;;;;;5011995;28;37212;-76
2021/05/12 09:29:21;;;;;;;9.57;2.30;;;;;;;;;;5011347;28;39384;-76
2021/05/12 09:31:47;;;;;;;14.38;2.42;;;;;;;;;;4986811;28;40225;-76
2021/05/12 09:34:14;;;;;;;8.95;1.73;;;;;;;;;;4991159;28;38035;-76
2021/05/12 09:36:40;;;;;;;9.10;2.05;;;;;;;;;;4970206;28;37422;-76
2021/05/12 09:39:10;;;;;;;10.10;2.00;;;;;;;;;;4956444;28;39918;-76
2021/05/12 09:41:37;;;;;;;14.30;2.60;;;;;;;;;;4972796;28;38906;-76
2021/05/12 09:44:06;;;;;;;14.60;2.58;;;;;;;;;;4994187;28;39199;-76
2021/05/12 09:46:34;;;;;;;8.48;2.40;;;;;;;;;;4994299;28;38558;-75
2021/05/12 09:49:00;;;;;;;9.10;2.33;;;;;;;;;;5013544;28;38647;-77
2021/05/12 09:51:40;;;;;;;8.00;2.10;;;;;;;;;;5006807;28;38368;-78
2021/05/12 09:54:08;;;;;;;6.88;1.50;;;;;;;;;;4961247;28;37028;-77
2021/05/12 09:56:39;;;;;;;10.60;1.95;;;;;;;;;;4972893;28;37705;-78
2021/05/12 09:59:08;;;;;;;11.15;2.20;;;;;;;;;;4971925;28;38676;-77
2021/05/12 10:01:38;;;;;;;10.00;2.53;;;;;;;;;;4954060;28;37290;-77
2021/05/12 10:04:18;;;;;;;6.18;1.73;;;;;;;;;;4953244;28;39418;-77
2021/05/12 10:06:45;;;;;;;10.18;2.17;;;;;;;;;;4970677;28;37174;-77
2021/05/12 10:09:31;;;;;;;7.53;1.95;;;;;;;;;;4953667;28;39393;-77
2021/05/12 10:12:01;;;;;;;8.45;2.28;;;;;;;;;;4971155;28;39624;-77
2021/05/12 10:14:27;;;;;;;6.57;1.65;;;;;;;;;;4970927;28;47333;-76
2021/05/12 10:16:54;;;;;;;8.90;1.58;;;;;;;;;;4970520;28;37289;-76
2021/05/12 10:19:21;;;;;;;7.65;2.00;;;;;;;;;;4964403;28;39216;-77
2021/05/12 10:21:48;;;;;;;8.00;1.95;;;;;;;;;;4970464;28;38922;-76
2021/05/12 10:24:14;;;;;;;8.80;2.25;;;;;;;;;;4971470;28;38666;-76
2021/05/12 10:26:44;;;;;;;9.10;1.98;;;;;;;;;;4988212;28;36945;-76
2021/05/12 10:29:18;;;;;;;8.32;1.88;;;;;;;;;;4969939;28;40819;-76
2021/05/12 10:31:44;;;;;;;9.95;1.85;;;;;;;;;;4992516;28;40083;-76
2021/05/12 10:34:16;;;;;;;8.13;1.67;;;;;;;;;;4990337;28;38796;-77
2021/05/12 10:36:42;;;;;;;8.30;1.92;;;;;;;;;;4973581;28;38101;-77
2021/05/12 10:39:09;;;;;;;9.10;1.70;;;;;;;;;;4971077;28;39452;-76
2021/05/12 10:41:46;;;;;;;7.95;1.83;;;;;;;;;;4990156;28;38417;-76
2021/05/12 10:46:46;;;;;;;9.75;2.13;;;;;;;;;;5009506;28;37904;-77
2021/05/12 10:49:21;;;;;;;9.23;2.38;;;;;;;;;;5010160;28;39404;-77
2021/05/12 10:51:48;;;;;;;10.25;1.90;;;;;;;;;;4990057;28;38881;-76
2021/05/12 10:54:15;;;;;;;11.25;1.98;;;;;;;;;;5008554;28;38357;-77
2021/05/12 10:56:42;;;;;;;8.50;2.83;;;;;;;;;;4987579;28;37528;-77
2021/05/12 10:59:13;;;;;;;7.63;1.77;;;;;;;;;;4977748;28;40532;-77
2021/05/12 11:01:42;;;;;;;9.80;2.25;;;;;;;;;;4974008;28;38966;-77
2021/05/12 11:04:12;;;;;;;9.07;2.17;;;;;;;;;;4991937;28;39551;-77
2021/05/12 11:06:38;;;;;;;9.27;2.00;;;;;;;;;;4993120;28;37655;-77
2021/05/12 11:09:06;;;;;;;8.32;2.10;;;;;;;;;;5008622;28;38852;-77
2021/05/12 11:11:33;;;;;;;7.00;1.90;;;;;;;;;;4990327;28;40100;-77
2021/05/12 11:14:18;;;;;;;11.85;2.20;;;;;;;;;;4990887;28;38355;-77
2021/05/12 11:17:00;;;;;;;7.13;1.80;;;;;;;;;;4989322;28;47334;-77
2021/05/12 11:19:37;;;;;;;8.10;2.08;;;;;;;;;;4991218;28;47165;-77
2021/05/12 11:22:22;;;;;;;8.85;1.92;;;;;;;;;;5005119;28;39289;-77
2021/05/12 11:24:54;;;;;;;8.63;2.33;;;;;;;;;;5008606;28;38490;-77
2021/05/12 11:28:07;;;;;;;7.07;2.10;;;;;;;;;;5005782;28;38655;-77
2021/05/12 11:32:58;;;;;;;9.60;2.20;;;;;;;;;;5008795;28;39372;-77
2021/05/12 11:35:24;;;;;;;8.90;1.90;;;;;;;;;;5007172;28;38926;-77
2021/05/12 11:37:50;;;;;;;8.90;2.03;;;;;;;;;;5007772;28;36181;-77
2021/05/12 11:40:17;;;;;;;7.50;1.83;;;;;;;;;;5005747;28;39371;-77
2021/05/12 11:42:45;;;;;;;7.38;1.95;;;;;;;;;;5007792;28;38455;-77
2021/05/12 11:45:21;;;;;;;11.27;2.17;;;;;;;;;;5008408;28;38359;-78
2021/05/12 11:48:06;;;;;;;8.18;2.45;;;;;;;;;;5009705;28;38680;-77
2021/05/12 11:50:36;;;;;;;9.75;2.40;;;;;;;;;;5021595;28;49008;-77
2021/05/12 11:53:03;;;;;;;7.25;1.98;;;;;;;;;;5000852;28;38712;-76
2021/05/12 11:55:33;;;;;;;15.57;2.47;;;;;;;;;;4970084;28;39609;-77
2021/05/12 11:58:00;;;;;;;6.65;2.08;;;;;;;;;;4990723;28;37058;-78
2021/05/12 12:00:32;;;;;;;14.93;2.78;;;;;;;;;;5007631;28;38697;-77
2021/05/12 12:03:01;;;;;;;11.88;2.55;;;;;;;;;;4990159;28;39272;-78
2021/05/12 12:05:36;;;;;;;7.43;2.50;;;;;;;;;;4988625;28;38451;-78
2021/05/12 12:08:13;;;;;;;8.88;2.60;;;;;;;;;;5010371;28;37177;-77
2021/05/12 12:10:40;;;;;;;8.40;2.38;;;;;;;;;;4991235;28;37633;-77
2021/05/12 12:13:09;;;;;;;8.40;2.50;;;;;;;;;;4975101;28;38173;-77
2021/05/12 12:15:43;;;;;;;10.20;2.38;;;;;;;;;;4974025;28;38399;-76
2021/05/12 12:18:09;;;;;;;10.88;2.58;;;;;;;;;;4992018;28;36390;-77
2021/05/12 12:20:36;;;;;;;11.13;2.53;;;;;;;;;;4991856;28;39031;-77
2021/05/12 12:23:03;;;;;;;9.07;2.20;;;;;;;;;;4992007;28;38670;-77
2021/05/12 12:25:41;;;;;;;10.05;2.35;;;;;;;;;;4972436;28;47364;-77
2021/05/12 12:28:07;;;;;;;9.13;2.05;;;;;;;;;;4990827;28;35903;-78
2021/05/12 12:30:33;;;;;;;8.77;2.72;;;;;;;;;;5009336;28;38022;-77
2021/05/12 12:33:02;;;;;;;8.95;2.15;;;;;;;;;;5009054;28;36990;-77
2021/05/12 12:35:28;;;;;;;8.60;2.70;;;;;;;;;;5007808;28;37947;-77
2021/05/12 12:37:55;;;;;;;7.63;1.90;;;;;;;;;;5010597;28;37108;-77
2021/05/12 12:40:23;;;;;;;7.25;2.20;;;;;;;;;;5009625;28;40050;-77
2021/05/12 12:42:50;;;;;;;8.68;2.63;;;;;;;;;;5009762;28;39104;-77
2021/05/12 12:45:26;;;;;;;8.32;2.22;;;;;;;;;;4991667;28;38413;-77
2021/05/12 12:47:53;;;;;;;8.15;2.30;;;;;;;;;;4987930;28;37814;-77
2021/05/12 12:50:19;;;;;;;8.63;1.85;;;;;;;;;;4990153;28;39730;-78
2021/05/12 12:52:46;;;;;;;10.75;2.67;;;;;;;;;;5003896;28;38739;-78
2021/05/12 12:55:13;;;;;;;6.68;1.98;;;;;;;;;;4989258;28;39230;-78
2021/05/12 12:57:40;;;;;;;7.82;2.17;;;;;;;;;;4972360;28;37248;-77
2021/05/12 13:00:11;;;;;;;8.45;2.53;;;;;;;;;;4971287;28;40674;-77
2021/05/12 13:02:38;;;;;;;6.60;2.00;;;;;;;;;;4990912;28;47511;-78
2021/05/12 13:05:11;;;;;;;9.95;2.60;;;;;;;;;;5008244;28;38839;-76
2021/05/12 13:07:37;;;;;;;8.60;3.45;;;;;;;;;;4996872;28;37364;-77
2021/05/12 13:10:43;;;;;;;8.60;2.28;;;;;;;;;;4997783;28;39259;-76
2021/05/12 13:13:10;;;;;;;12.48;2.45;;;;;;;;;;4922141;29;47301;-77
2021/05/12 13:15:38;;;;;;;13.45;2.22;;;;;;;;;;4918909;29;38766;-77
2021/05/12 13:18:06;;;;;;;8.60;2.63;;;;;;;;;;4949480;28;37001;-77
2021/05/12 13:20:33;;;;;;;6.10;2.25;;;;;;;;;;4976010;28;39234;-77
2021/05/12 13:23:00;;;;;;;10.05;2.85;;;;;;;;;;4994227;28;39244;-77
2021/05/12 13:25:27;;;;;;;6.82;2.33;;;;;;;;;;4994517;28;38182;-77
2021/05/12 13:27:53;;;;;;;7.50;2.47;;;;;;;;;;4993333;28;37029;-77
2021/05/12 13:30:20;;;;;;;9.23;2.20;;;;;;;;;;4974414;28;39228;-78
2021/05/12 13:32:48;;;;;;;7.90;2.17;;;;;;;;;;4992492;28;38732;-77
2021/05/12 13:35:14;;;;;;;7.85;2.05;;;;;;;;;;5000312;28;37987;-78
2021/05/12 13:37:41;;;;;;;9.75;2.13;;;;;;;;;;5009256;28;37468;-78
2021/05/12 13:40:08;;;;;;;7.82;2.17;;;;;;;;;;5010575;28;39488;-77
2021/05/12 13:42:34;;;;;;;8.90;2.20;;;;;;;;;;5010657;28;39638;-77
2021/05/12 13:45:01;;;;;;;7.70;1.75;;;;;;;;;;5029619;28;38248;-77
2021/05/12 13:47:27;;;;;;;7.32;2.22;;;;;;;;;;5011614;28;37568;-77
2021/05/12 13:49:54;;;;;;;8.35;2.30;;;;;;;;;;5028602;28;38938;-77
2021/05/12 13:52:34;;;;;;;8.63;2.20;;;;;;;;;;4983125;28;39667;-77
2021/05/12 13:55:06;;;;;;;7.45;2.50;;;;;;;;;;4991427;28;37743;-77
2021/05/12 14:05:37;;;;;;;10.10;2.20;;;;;;;;;;4970800;28;48750;-79
2021/05/12 14:08:04;;;;;;;7.60;2.22;;;;;;;;;;4972260;28;35993;-76
2021/05/12 14:10:36;;;;;;;19.38;2.75;;;;;;;;;;4971735;28;37532;-79
2021/05/12 14:13:26;;;;;;;9.60;3.47;;;;;;;;;;4971573;28;37613;-77
2021/05/12 14:18:20;;;;;;;7.82;2.53;;;;;;;;;;4988127;28;36898;-77
2021/05/12 14:20:46;;;;;;;8.35;2.67;;;;;;;;;;4970768;28;37636;-77
2021/05/12 14:23:12;;;;;;;9.50;2.83;;;;;;;;;;4971803;28;37314;-78
2021/05/12 14:25:39;;;;;;;9.95;2.28;;;;;;;;;;4994245;28;38306;-77
2021/05/12 14:28:05;;;;;;;9.73;2.13;;;;;;;;;;5008229;28;36497;-77
2021/05/12 14:30:41;;;;;;;8.55;2.33;;;;;;;;;;4989530;28;38139;-77
2021/05/12 14:33:07;;;;;;;7.72;1.98;;;;;;;;;;5007619;28;39617;-77
2021/05/12 14:35:34;;;;;;;11.73;2.55;;;;;;;;;;4991234;28;38547;-77
2021/05/12 14:38:01;;;;;;;7.07;2.28;;;;;;;;;;4990366;28;35732;-78
2021/05/12 14:40:29;;;;;;;9.45;2.15;;;;;;;;;;5009216;28;47795;-77
2021/05/12 14:42:55;;;;;;;9.52;2.35;;;;;;;;;;4995050;28;38262;-77
2021/05/12 14:45:22;;;;;;;13.80;2.17;;;;;;;;;;5012221;28;38315;-76
2021/05/12 14:47:54;;;;;;;10.00;2.03;;;;;;;;;;5013302;28;37775;-77
2021/05/12 14:50:22;;;;;;;10.80;2.90;;;;;;;;;;5027876;28;38825;-76
2021/05/12 14:52:55;;;;;;;8.57;2.00;;;;;;;;;;4990850;28;37797;-76
2021/05/12 14:55:35;;;;;;;7.63;1.85;;;;;;;;;;5008144;28;38305;-75